createdAt,value
2022-12-19T00:08:47.267Z,98
2022-12-19T00:48:49.421Z,99
2022-12-19T01:38:52.276Z,100
2022-12-19T02:08:53.391Z,100
2022-12-19T02:38:55.151Z,100
2022-12-19T04:49:02.268Z,100
2022-12-19T04:59:03.324Z,100
2022-12-19T05:09:03.980Z,100
2022-12-19T05:19:04.481Z,100
2022-12-19T05:39:05.803Z,100
2022-12-19T05:49:06.183Z,100
2022-12-19T05:59:07.159Z,100
2022-12-19T06:19:08.515Z,100
2022-12-19T06:29:09.570Z,100
2022-12-19T06:39:10.645Z,100
2022-12-19T06:49:11.671Z,100
2022-12-19T06:59:11.798Z,100
2022-12-19T07:09:12.511Z,100
2022-12-19T07:19:13.066Z,100
2022-12-19T07:29:13.237Z,100
2022-12-19T07:59:16.379Z,100
2022-12-19T08:09:16.724Z,100
2022-12-19T08:19:17.251Z,100
2022-12-19T08:29:18.175Z,100
2022-12-19T08:59:24.345Z,100
2022-12-19T09:09:19.511Z,100
2022-12-19T09:29:21.524Z,100
2022-12-19T09:39:20.788Z,100
2022-12-19T10:39:24.801Z,100
2022-12-19T10:49:25.283Z,100
2022-12-19T11:24:14.202Z,98
2022-12-19T11:39:27.655Z,97
2022-12-19T11:49:28.411Z,97
2022-12-19T11:59:29.178Z,96
2022-12-19T12:10:59.175Z,96
2022-12-19T12:26:11.557Z,95
2022-12-19T12:31:33.964Z,94
2022-12-19T12:39:33.496Z,94
2022-12-19T12:49:32.310Z,93
2022-12-19T12:59:33.307Z,93
2022-12-19T13:19:34.819Z,93
2022-12-19T13:29:35.877Z,92
2022-12-19T13:39:53.566Z,91
2022-12-19T13:49:37.150Z,90
2022-12-19T14:10:42.380Z,88
2022-12-19T14:19:39.255Z,87
2022-12-19T14:29:55.898Z,86
2022-12-19T14:39:45.169Z,85
2022-12-19T14:59:45.917Z,85
2022-12-19T15:11:01.344Z,84
2022-12-19T15:19:46.946Z,84
2022-12-19T15:39:48.917Z,84
2022-12-19T16:19:52.106Z,83
2022-12-19T16:29:53.053Z,84
2022-12-19T16:39:54.030Z,84
2022-12-19T16:49:54.297Z,85
2022-12-19T16:59:54.910Z,85
2022-12-19T17:09:55.579Z,85
2022-12-19T17:19:56.553Z,86
2022-12-19T17:29:56.634Z,86
2022-12-19T17:39:57.676Z,85
2022-12-19T17:49:58.609Z,85
2022-12-19T17:59:58.992Z,86
2022-12-19T18:10:00.038Z,86
2022-12-19T18:20:00.297Z,86
2022-12-19T18:30:01.385Z,86
2022-12-19T18:40:02.021Z,85
2022-12-19T18:50:02.993Z,85
2022-12-19T19:00:04.129Z,85
2022-12-19T19:20:05.324Z,84
2022-12-19T19:30:05.960Z,84
2022-12-19T19:40:06.663Z,84
2022-12-19T19:50:07.108Z,84
2022-12-19T20:00:08.058Z,84
2022-12-19T20:30:10.630Z,84
2022-12-19T20:40:11.349Z,84
2022-12-19T21:00:12.324Z,86
2022-12-19T21:10:13.087Z,86
2022-12-19T21:20:14.147Z,86
2022-12-19T21:30:14.668Z,85
2022-12-19T21:40:14.910Z,86
2022-12-19T21:50:15.312Z,86
2022-12-19T22:00:16.286Z,87
2022-12-19T22:10:17.396Z,87
2022-12-19T22:20:17.790Z,88
2022-12-19T22:30:18.144Z,88
2022-12-19T22:40:19.160Z,89
2022-12-19T22:50:19.519Z,89
2022-12-19T23:10:20.476Z,90
2022-12-19T23:20:20.935Z,91
2022-12-19T23:30:21.859Z,91
